sensor_id;sensor_type;location;lat;lon;timestamp;temperature;humidity
47226;DHT22;32965;64.142;-21.912;2023-07-31T00:00:35;13.30;99.90
47226;DHT22;32965;64.142;-21.912;2023-07-31T00:03:01;13.30;99.90
47226;DHT22;32965;64.142;-21.912;2023-07-31T00:05:27;13.30;99.90
47226;DHT22;32965;64.142;-21.912;2023-07-31T00:07:53;13.20;99.90
47226;DHT22;32965;64.142;-21.912;2023-07-31T00:10:20;13.30;99.90
47226;DHT22;32965;64.142;-21.912;2023-07-31T00:12:46;13.20;99.90
47226;DHT22;32965;64.142;-21.912;2023-07-31T00:15:14;13.30;99.90
47226;DHT22;32965;64.142;-21.912;2023-07-31T00:17:40;13.30;99.90
47226;DHT22;32965;64.142;-21.912;2023-07-31T00:20:08;13.20;99.90
47226;DHT22;32965;64.142;-21.912;2023-07-31T00:22:36;13.30;99.90
47226;DHT22;32965;64.142;-21.912;2023-07-31T00:25:01;13.10;99.90
47226;DHT22;32965;64.142;-21.912;2023-07-31T00:27:37;13.10;99.90
47226;DHT22;32965;64.142;-21.912;2023-07-31T00:30:03;13.10;99.90
47226;DHT22;32965;64.142;-21.912;2023-07-31T00:32:29;13.00;99.90
47226;DHT22;32965;64.142;-21.912;2023-07-31T00:34:55;12.90;99.90
47226;DHT22;32965;64.142;-21.912;2023-07-31T00:37:21;12.30;99.90
47226;DHT22;32965;64.142;-21.912;2023-07-31T00:39:47;12.80;99.90
47226;DHT22;32965;64.142;-21.912;2023-07-31T00:42:46;12.90;99.90
47226;DHT22;32965;64.142;-21.912;2023-07-31T00:45:12;12.90;99.90
47226;DHT22;32965;64.142;-21.912;2023-07-31T00:47:37;12.80;99.90
47226;DHT22;32965;64.142;-21.912;2023-07-31T00:50:03;12.70;99.90
47226;DHT22;32965;64.142;-21.912;2023-07-31T00:52:30;12.70;99.90
47226;DHT22;32965;64.142;-21.912;2023-07-31T00:54:56;12.60;99.90
47226;DHT22;32965;64.142;-21.912;2023-07-31T00:57:23;12.60;99.90
47226;DHT22;32965;64.142;-21.912;2023-07-31T00:59:49;12.70;99.90
47226;DHT22;32965;64.142;-21.912;2023-07-31T01:02:15;12.70;99.90
47226;DHT22;32965;64.142;-21.912;2023-07-31T01:04:42;12.80;99.90
47226;DHT22;32965;64.142;-21.912;2023-07-31T01:07:22;11.00;99.90
47226;DHT22;32965;64.142;-21.912;2023-07-31T01:10:04;12.80;99.90
47226;DHT22;32965;64.142;-21.912;2023-07-31T01:12:31;12.80;99.90
47226;DHT22;32965;64.142;-21.912;2023-07-31T01:15:07;12.90;99.90
47226;DHT22;32965;64.142;-21.912;2023-07-31T01:17:43;12.50;99.90
47226;DHT22;32965;64.142;-21.912;2023-07-31T01:23:07;12.70;99.90
47226;DHT22;32965;64.142;-21.912;2023-07-31T01:28:27;12.60;99.90
47226;DHT22;32965;64.142;-21.912;2023-07-31T01:30:57;12.70;99.90
47226;DHT22;32965;64.142;-21.912;2023-07-31T01:33:24;12.70;99.90
47226;DHT22;32965;64.142;-21.912;2023-07-31T01:35:51;11.90;99.90
47226;DHT22;32965;64.142;-21.912;2023-07-31T01:38:21;12.50;99.90
47226;DHT22;32965;64.142;-21.912;2023-07-31T01:40:51;12.70;99.90
47226;DHT22;32965;64.142;-21.912;2023-07-31T01:43:17;12.60;99.90
47226;DHT22;32965;64.142;-21.912;2023-07-31T01:45:43;12.60;99.90
47226;DHT22;32965;64.142;-21.912;2023-07-31T01:48:09;12.70;99.90
47226;DHT22;32965;64.142;-21.912;2023-07-31T01:50:36;12.60;99.90
47226;DHT22;32965;64.142;-21.912;2023-07-31T01:53:04;12.60;99.90
47226;DHT22;32965;64.142;-21.912;2023-07-31T01:55:30;12.60;99.90
47226;DHT22;32965;64.142;-21.912;2023-07-31T01:57:55;12.60;99.90
47226;DHT22;32965;64.142;-21.912;2023-07-31T02:00:21;12.60;99.90
47226;DHT22;32965;64.142;-21.912;2023-07-31T02:02:47;12.20;99.90
47226;DHT22;32965;64.142;-21.912;2023-07-31T02:05:13;12.60;99.90
47226;DHT22;32965;64.142;-21.912;2023-07-31T02:10:55;12.50;99.90
47226;DHT22;32965;64.142;-21.912;2023-07-31T02:13:21;12.50;99.90
47226;DHT22;32965;64.142;-21.912;2023-07-31T02:15:48;12.50;99.90
47226;DHT22;32965;64.142;-21.912;2023-07-31T02:18:13;12.60;99.90
47226;DHT22;32965;64.142;-21.912;2023-07-31T02:20:39;12.60;99.90
47226;DHT22;32965;64.142;-21.912;2023-07-31T02:23:05;12.60;99.90
47226;DHT22;32965;64.142;-21.912;2023-07-31T02:25:31;12.50;99.90
47226;DHT22;32965;64.142;-21.912;2023-07-31T02:27:56;11.30;99.90
47226;DHT22;32965;64.142;-21.912;2023-07-31T02:30:22;12.60;99.90
47226;DHT22;32965;64.142;-21.912;2023-07-31T02:32:48;12.70;99.90
47226;DHT22;32965;64.142;-21.912;2023-07-31T02:35:14;12.70;99.90
47226;DHT22;32965;64.142;-21.912;2023-07-31T02:37:42;12.70;99.90
47226;DHT22;32965;64.142;-21.912;2023-07-31T02:40:08;12.40;99.90
47226;DHT22;32965;64.142;-21.912;2023-07-31T02:42:34;12.70;99.90
47226;DHT22;32965;64.142;-21.912;2023-07-31T02:44:59;12.70;99.90
47226;DHT22;32965;64.142;-21.912;2023-07-31T02:47:25;12.60;99.90
47226;DHT22;32965;64.142;-21.912;2023-07-31T02:49:51;12.60;99.90
47226;DHT22;32965;64.142;-21.912;2023-07-31T02:52:18;12.60;99.90
47226;DHT22;32965;64.142;-21.912;2023-07-31T02:54:44;12.60;99.90
47226;DHT22;32965;64.142;-21.912;2023-07-31T02:57:10;12.60;99.90
47226;DHT22;32965;64.142;-21.912;2023-07-31T02:59:35;12.90;99.90
47226;DHT22;32965;64.142;-21.912;2023-07-31T03:02:01;13.00;99.90
47226;DHT22;32965;64.142;-21.912;2023-07-31T03:04:27;12.60;99.90
47226;DHT22;32965;64.142;-21.912;2023-07-31T03:06:53;12.60;99.90
47226;DHT22;32965;64.142;-21.912;2023-07-31T03:09:18;12.50;99.90
47226;DHT22;32965;64.142;-21.912;2023-07-31T03:11:44;12.60;99.90
47226;DHT22;32965;64.142;-21.912;2023-07-31T03:14:10;12.60;99.90
47226;DHT22;32965;64.142;-21.912;2023-07-31T03:16:36;12.50;99.90
47226;DHT22;32965;64.142;-21.912;2023-07-31T03:19:30;12.60;99.90
47226;DHT22;32965;64.142;-21.912;2023-07-31T03:21:56;12.60;99.90
47226;DHT22;32965;64.142;-21.912;2023-07-31T03:24:21;12.50;99.90
47226;DHT22;32965;64.142;-21.912;2023-07-31T03:26:47;12.40;99.90
47226;DHT22;32965;64.142;-21.912;2023-07-31T03:29:13;12.60;99.90
47226;DHT22;32965;64.142;-21.912;2023-07-31T03:31:39;12.60;99.90
47226;DHT22;32965;64.142;-21.912;2023-07-31T03:34:04;12.70;99.90
47226;DHT22;32965;64.142;-21.912;2023-07-31T03:36:30;12.70;99.90
47226;DHT22;32965;64.142;-21.912;2023-07-31T03:38:56;12.70;99.90
47226;DHT22;32965;64.142;-21.912;2023-07-31T03:41:22;12.40;99.90
47226;DHT22;32965;64.142;-21.912;2023-07-31T03:43:50;12.60;99.90
47226;DHT22;32965;64.142;-21.912;2023-07-31T03:46:22;12.60;99.90
47226;DHT22;32965;64.142;-21.912;2023-07-31T03:48:48;12.60;99.90
47226;DHT22;32965;64.142;-21.912;2023-07-31T03:51:14;12.70;99.90
47226;DHT22;32965;64.142;-21.912;2023-07-31T03:53:40;12.60;99.90
47226;DHT22;32965;64.142;-21.912;2023-07-31T03:56:05;12.60;99.90
47226;DHT22;32965;64.142;-21.912;2023-07-31T03:58:31;12.60;99.90
47226;DHT22;32965;64.142;-21.912;2023-07-31T04:00:57;12.60;99.90
47226;DHT22;32965;64.142;-21.912;2023-07-31T04:03:23;12.60;99.90
47226;DHT22;32965;64.142;-21.912;2023-07-31T04:05:48;12.70;99.90
47226;DHT22;32965;64.142;-21.912;2023-07-31T04:08:14;12.70;99.90
47226;DHT22;32965;64.142;-21.912;2023-07-31T04:10:40;12.70;99.90
47226;DHT22;32965;64.142;-21.912;2023-07-31T04:15:41;12.70;99.90
47226;DHT22;32965;64.142;-21.912;2023-07-31T04:18:07;12.70;99.90
47226;DHT22;32965;64.142;-21.912;2023-07-31T04:20:33;12.70;99.90
47226;DHT22;32965;64.142;-21.912;2023-07-31T04:22:59;12.80;99.90
47226;DHT22;32965;64.142;-21.912;2023-07-31T04:25:25;12.90;99.90
47226;DHT22;32965;64.142;-21.912;2023-07-31T04:27:51;12.90;99.90
47226;DHT22;32965;64.142;-21.912;2023-07-31T04:30:16;12.90;99.90
47226;DHT22;32965;64.142;-21.912;2023-07-31T04:32:42;12.90;99.90
47226;DHT22;32965;64.142;-21.912;2023-07-31T04:35:08;12.90;99.90
47226;DHT22;32965;64.142;-21.912;2023-07-31T04:37:34;12.90;99.90
47226;DHT22;32965;64.142;-21.912;2023-07-31T04:40:00;12.90;99.90
47226;DHT22;32965;64.142;-21.912;2023-07-31T04:42:25;12.90;99.90
47226;DHT22;32965;64.142;-21.912;2023-07-31T04:44:51;12.90;99.90
47226;DHT22;32965;64.142;-21.912;2023-07-31T04:47:18;12.90;99.90
47226;DHT22;32965;64.142;-21.912;2023-07-31T04:49:44;13.00;99.90
47226;DHT22;32965;64.142;-21.912;2023-07-31T04:52:10;13.00;99.90
47226;DHT22;32965;64.142;-21.912;2023-07-31T04:54:36;12.90;99.90
47226;DHT22;32965;64.142;-21.912;2023-07-31T04:57:02;12.90;99.90
47226;DHT22;32965;64.142;-21.912;2023-07-31T04:59:27;12.90;99.90
47226;DHT22;32965;64.142;-21.912;2023-07-31T05:01:53;12.90;99.90
47226;DHT22;32965;64.142;-21.912;2023-07-31T05:04:19;12.90;99.90
47226;DHT22;32965;64.142;-21.912;2023-07-31T05:06:45;12.90;99.90
47226;DHT22;32965;64.142;-21.912;2023-07-31T05:09:10;12.90;99.90
47226;DHT22;32965;64.142;-21.912;2023-07-31T05:11:36;13.00;99.90
47226;DHT22;32965;64.142;-21.912;2023-07-31T05:14:02;13.00;99.90
47226;DHT22;32965;64.142;-21.912;2023-07-31T05:16:28;13.00;99.90
47226;DHT22;32965;64.142;-21.912;2023-07-31T05:18:53;13.00;99.90
47226;DHT22;32965;64.142;-21.912;2023-07-31T05:21:19;13.10;99.90
47226;DHT22;32965;64.142;-21.912;2023-07-31T05:23:54;13.00;99.90
47226;DHT22;32965;64.142;-21.912;2023-07-31T05:26:20;13.10;99.90
47226;DHT22;32965;64.142;-21.912;2023-07-31T05:28:45;13.10;99.90
47226;DHT22;32965;64.142;-21.912;2023-07-31T05:31:12;13.10;99.90
47226;DHT22;32965;64.142;-21.912;2023-07-31T05:33:38;13.10;99.90
47226;DHT22;32965;64.142;-21.912;2023-07-31T05:36:24;13.20;99.90
47226;DHT22;32965;64.142;-21.912;2023-07-31T05:38:49;13.10;99.90
47226;DHT22;32965;64.142;-21.912;2023-07-31T05:41:15;13.10;99.90
47226;DHT22;32965;64.142;-21.912;2023-07-31T05:43:41;13.10;99.90
47226;DHT22;32965;64.142;-21.912;2023-07-31T05:46:08;13.10;99.90
47226;DHT22;32965;64.142;-21.912;2023-07-31T05:48:34;13.10;99.90
47226;DHT22;32965;64.142;-21.912;2023-07-31T05:51:01;13.20;99.90
47226;DHT22;32965;64.142;-21.912;2023-07-31T05:53:27;13.10;99.90
47226;DHT22;32965;64.142;-21.912;2023-07-31T05:55:52;11.50;99.90
47226;DHT22;32965;64.142;-21.912;2023-07-31T05:58:19;13.20;99.90
47226;DHT22;32965;64.142;-21.912;2023-07-31T06:05:55;13.20;99.90
47226;DHT22;32965;64.142;-21.912;2023-07-31T06:08:22;13.20;99.90
47226;DHT22;32965;64.142;-21.912;2023-07-31T06:10:48;13.30;99.90
47226;DHT22;32965;64.142;-21.912;2023-07-31T06:13:14;13.30;99.90
47226;DHT22;32965;64.142;-21.912;2023-07-31T06:15:40;13.30;99.90
47226;DHT22;32965;64.142;-21.912;2023-07-31T06:18:05;12.40;99.90
47226;DHT22;32965;64.142;-21.912;2023-07-31T06:20:49;13.30;99.90
47226;DHT22;32965;64.142;-21.912;2023-07-31T06:23:19;13.30;99.90
47226;DHT22;32965;64.142;-21.912;2023-07-31T06:25:46;13.30;99.90
47226;DHT22;32965;64.142;-21.912;2023-07-31T06:28:12;13.40;99.90
47226;DHT22;32965;64.142;-21.912;2023-07-31T06:30:37;13.40;99.90
47226;DHT22;32965;64.142;-21.912;2023-07-31T06:33:03;13.30;99.90
47226;DHT22;32965;64.142;-21.912;2023-07-31T06:35:29;13.30;99.90
47226;DHT22;32965;64.142;-21.912;2023-07-31T06:37:55;13.30;99.90
47226;DHT22;32965;64.142;-21.912;2023-07-31T06:40:22;12.10;99.90
47226;DHT22;32965;64.142;-21.912;2023-07-31T06:43:10;13.30;99.90
47226;DHT22;32965;64.142;-21.912;2023-07-31T06:45:36;13.30;99.90
47226;DHT22;32965;64.142;-21.912;2023-07-31T06:48:04;13.20;99.90
47226;DHT22;32965;64.142;-21.912;2023-07-31T06:50:44;13.20;99.90
47226;DHT22;32965;64.142;-21.912;2023-07-31T06:53:10;13.20;99.90
47226;DHT22;32965;64.142;-21.912;2023-07-31T06:55:35;13.20;99.90
47226;DHT22;32965;64.142;-21.912;2023-07-31T06:58:01;13.10;99.90
47226;DHT22;32965;64.142;-21.912;2023-07-31T07:00:27;13.10;99.90
47226;DHT22;32965;64.142;-21.912;2023-07-31T07:06:16;13.20;99.90
47226;DHT22;32965;64.142;-21.912;2023-07-31T07:08:42;13.20;99.90
47226;DHT22;32965;64.142;-21.912;2023-07-31T07:11:08;13.20;99.90
47226;DHT22;32965;64.142;-21.912;2023-07-31T07:13:34;13.20;99.90
47226;DHT22;32965;64.142;-21.912;2023-07-31T07:23:46;13.60;99.90
47226;DHT22;32965;64.142;-21.912;2023-07-31T07:26:12;13.50;99.90
47226;DHT22;32965;64.142;-21.912;2023-07-31T07:28:38;13.60;99.90
47226;DHT22;32965;64.142;-21.912;2023-07-31T07:31:04;13.60;99.90
47226;DHT22;32965;64.142;-21.912;2023-07-31T07:33:30;12.40;99.90
47226;DHT22;32965;64.142;-21.912;2023-07-31T07:36:00;13.50;99.90
47226;DHT22;32965;64.142;-21.912;2023-07-31T07:38:26;13.60;99.90
47226;DHT22;32965;64.142;-21.912;2023-07-31T07:40:52;11.80;99.90
47226;DHT22;32965;64.142;-21.912;2023-07-31T07:43:19;13.30;99.90
47226;DHT22;32965;64.142;-21.912;2023-07-31T07:45:45;13.60;99.90
47226;DHT22;32965;64.142;-21.912;2023-07-31T07:48:33;13.50;99.90
47226;DHT22;32965;64.142;-21.912;2023-07-31T07:50:59;13.40;99.90
47226;DHT22;32965;64.142;-21.912;2023-07-31T07:53:25;11.90;99.90
47226;DHT22;32965;64.142;-21.912;2023-07-31T07:55:51;13.30;99.90
47226;DHT22;32965;64.142;-21.912;2023-07-31T07:58:17;13.40;99.90
47226;DHT22;32965;64.142;-21.912;2023-07-31T08:00:49;13.30;99.90
47226;DHT22;32965;64.142;-21.912;2023-07-31T08:03:16;13.40;99.90
47226;DHT22;32965;64.142;-21.912;2023-07-31T08:05:44;13.30;99.90
47226;DHT22;32965;64.142;-21.912;2023-07-31T08:08:17;13.20;99.90
47226;DHT22;32965;64.142;-21.912;2023-07-31T08:10:43;13.40;99.90
47226;DHT22;32965;64.142;-21.912;2023-07-31T08:13:12;13.30;99.90
47226;DHT22;32965;64.142;-21.912;2023-07-31T08:15:40;13.30;99.90
47226;DHT22;32965;64.142;-21.912;2023-07-31T08:18:06;13.30;99.90
47226;DHT22;32965;64.142;-21.912;2023-07-31T08:20:32;12.00;99.90
47226;DHT22;32965;64.142;-21.912;2023-07-31T08:22:58;13.40;99.90
47226;DHT22;32965;64.142;-21.912;2023-07-31T08:25:24;13.40;99.90
47226;DHT22;32965;64.142;-21.912;2023-07-31T08:31:05;13.50;99.90
47226;DHT22;32965;64.142;-21.912;2023-07-31T08:33:31;13.40;99.90
47226;DHT22;32965;64.142;-21.912;2023-07-31T08:35:57;13.40;99.90
47226;DHT22;32965;64.142;-21.912;2023-07-31T08:38:25;13.40;99.90
47226;DHT22;32965;64.142;-21.912;2023-07-31T08:40:51;13.60;99.90
47226;DHT22;32965;64.142;-21.912;2023-07-31T08:43:27;14.60;99.90
47226;DHT22;32965;64.142;-21.912;2023-07-31T08:45:54;14.10;99.90
47226;DHT22;32965;64.142;-21.912;2023-07-31T08:48:21;13.90;99.90
47226;DHT22;32965;64.142;-21.912;2023-07-31T08:50:48;14.10;99.90
47226;DHT22;32965;64.142;-21.912;2023-07-31T08:53:14;14.10;99.90
47226;DHT22;32965;64.142;-21.912;2023-07-31T08:55:42;14.00;99.90
47226;DHT22;32965;64.142;-21.912;2023-07-31T08:58:08;14.10;99.90
47226;DHT22;32965;64.142;-21.912;2023-07-31T09:00:35;14.10;99.90
47226;DHT22;32965;64.142;-21.912;2023-07-31T09:03:15;14.20;99.90
47226;DHT22;32965;64.142;-21.912;2023-07-31T09:05:46;14.30;99.90
47226;DHT22;32965;64.142;-21.912;2023-07-31T09:08:14;14.20;99.90
47226;DHT22;32965;64.142;-21.912;2023-07-31T09:10:44;14.30;99.90
47226;DHT22;32965;64.142;-21.912;2023-07-31T09:16:12;14.40;99.90
47226;DHT22;32965;64.142;-21.912;2023-07-31T09:19:08;13.00;99.90
47226;DHT22;32965;64.142;-21.912;2023-07-31T09:21:49;14.40;99.90
47226;DHT22;32965;64.142;-21.912;2023-07-31T09:24:25;14.40;99.90
47226;DHT22;32965;64.142;-21.912;2023-07-31T09:26:54;14.50;99.90
47226;DHT22;32965;64.142;-21.912;2023-07-31T09:29:24;14.50;99.90
47226;DHT22;32965;64.142;-21.912;2023-07-31T09:31:52;14.50;99.90
47226;DHT22;32965;64.142;-21.912;2023-07-31T09:34:19;14.30;99.90
47226;DHT22;32965;64.142;-21.912;2023-07-31T09:36:50;14.40;99.90
47226;DHT22;32965;64.142;-21.912;2023-07-31T09:39:19;15.00;99.90
47226;DHT22;32965;64.142;-21.912;2023-07-31T09:41:54;14.50;99.90
47226;DHT22;32965;64.142;-21.912;2023-07-31T09:44:20;14.50;99.90
47226;DHT22;32965;64.142;-21.912;2023-07-31T09:46:46;14.50;99.90
47226;DHT22;32965;64.142;-21.912;2023-07-31T09:49:14;14.50;99.90
47226;DHT22;32965;64.142;-21.912;2023-07-31T09:51:42;14.60;99.90
47226;DHT22;32965;64.142;-21.912;2023-07-31T09:56:47;14.70;99.90
47226;DHT22;32965;64.142;-21.912;2023-07-31T09:59:16;14.80;99.90
47226;DHT22;32965;64.142;-21.912;2023-07-31T10:01:43;14.80;99.90
47226;DHT22;32965;64.142;-21.912;2023-07-31T10:06:46;14.70;99.90
47226;DHT22;32965;64.142;-21.912;2023-07-31T10:09:14;14.70;99.90
47226;DHT22;32965;64.142;-21.912;2023-07-31T10:11:46;14.60;99.90
47226;DHT22;32965;64.142;-21.912;2023-07-31T10:14:19;14.50;99.90
47226;DHT22;32965;64.142;-21.912;2023-07-31T10:16:45;14.50;99.90
47226;DHT22;32965;64.142;-21.912;2023-07-31T10:19:12;14.80;99.90
47226;DHT22;32965;64.142;-21.912;2023-07-31T10:21:38;14.80;99.90
47226;DHT22;32965;64.142;-21.912;2023-07-31T10:24:04;13.60;99.90
47226;DHT22;32965;64.142;-21.912;2023-07-31T10:26:35;15.70;99.90
47226;DHT22;32965;64.142;-21.912;2023-07-31T10:29:04;15.00;99.90
47226;DHT22;32965;64.142;-21.912;2023-07-31T10:31:30;15.10;99.90
47226;DHT22;32965;64.142;-21.912;2023-07-31T10:33:58;15.30;99.90
47226;DHT22;32965;64.142;-21.912;2023-07-31T10:39:04;15.50;99.90
47226;DHT22;32965;64.142;-21.912;2023-07-31T10:41:30;15.40;99.90
47226;DHT22;32965;64.142;-21.912;2023-07-31T10:46:32;15.20;99.90
47226;DHT22;32965;64.142;-21.912;2023-07-31T10:49:02;14.10;99.90
47226;DHT22;32965;64.142;-21.912;2023-07-31T10:51:35;15.00;99.90
47226;DHT22;32965;64.142;-21.912;2023-07-31T10:54:12;14.70;99.90
47226;DHT22;32965;64.142;-21.912;2023-07-31T10:56:38;14.80;99.90
47226;DHT22;32965;64.142;-21.912;2023-07-31T10:59:05;15.00;99.90
47226;DHT22;32965;64.142;-21.912;2023-07-31T11:01:53;14.80;99.90
47226;DHT22;32965;64.142;-21.912;2023-07-31T11:04:25;15.10;99.90
47226;DHT22;32965;64.142;-21.912;2023-07-31T11:07:01;15.20;99.90
47226;DHT22;32965;64.142;-21.912;2023-07-31T11:09:33;15.20;99.90
47226;DHT22;32965;64.142;-21.912;2023-07-31T11:11:59;15.60;99.90
47226;DHT22;32965;64.142;-21.912;2023-07-31T11:14:25;15.50;99.90
47226;DHT22;32965;64.142;-21.912;2023-07-31T11:16:52;15.40;99.90
47226;DHT22;32965;64.142;-21.912;2023-07-31T11:19:24;15.40;99.90
47226;DHT22;32965;64.142;-21.912;2023-07-31T11:21:53;15.50;99.90
47226;DHT22;32965;64.142;-21.912;2023-07-31T11:24:20;15.50;99.90
47226;DHT22;32965;64.142;-21.912;2023-07-31T11:26:51;15.50;99.90
47226;DHT22;32965;64.142;-21.912;2023-07-31T11:29:17;15.40;99.90
47226;DHT22;32965;64.142;-21.912;2023-07-31T11:31:43;15.30;99.90
47226;DHT22;32965;64.142;-21.912;2023-07-31T11:34:09;15.50;99.90
47226;DHT22;32965;64.142;-21.912;2023-07-31T11:36:35;15.60;99.90
47226;DHT22;32965;64.142;-21.912;2023-07-31T11:39:10;15.50;99.90
47226;DHT22;32965;64.142;-21.912;2023-07-31T11:44:44;15.70;99.90
47226;DHT22;32965;64.142;-21.912;2023-07-31T11:47:13;15.70;99.90
47226;DHT22;32965;64.142;-21.912;2023-07-31T11:49:39;15.50;99.90
47226;DHT22;32965;64.142;-21.912;2023-07-31T11:52:05;15.50;99.90
47226;DHT22;32965;64.142;-21.912;2023-07-31T11:54:31;15.60;99.90
47226;DHT22;32965;64.142;-21.912;2023-07-31T11:56:57;15.50;99.90
47226;DHT22;32965;64.142;-21.912;2023-07-31T11:59:26;15.30;99.90
47226;DHT22;32965;64.142;-21.912;2023-07-31T12:01:52;15.20;99.90
47226;DHT22;32965;64.142;-21.912;2023-07-31T12:04:19;15.10;99.90
47226;DHT22;32965;64.142;-21.912;2023-07-31T12:06:47;15.10;99.90
47226;DHT22;32965;64.142;-21.912;2023-07-31T12:09:14;15.10;99.90
47226;DHT22;32965;64.142;-21.912;2023-07-31T12:11:47;15.10;99.90
47226;DHT22;32965;64.142;-21.912;2023-07-31T12:14:21;15.20;99.90
47226;DHT22;32965;64.142;-21.912;2023-07-31T12:16:47;15.10;99.90
47226;DHT22;32965;64.142;-21.912;2023-07-31T12:19:13;15.20;99.90
47226;DHT22;32965;64.142;-21.912;2023-07-31T12:21:39;15.20;99.90
47226;DHT22;32965;64.142;-21.912;2023-07-31T12:24:05;15.20;99.90
47226;DHT22;32965;64.142;-21.912;2023-07-31T12:26:34;15.30;99.90
47226;DHT22;32965;64.142;-21.912;2023-07-31T12:29:00;15.30;99.90
47226;DHT22;32965;64.142;-21.912;2023-07-31T12:31:28;15.00;99.90
47226;DHT22;32965;64.142;-21.912;2023-07-31T12:33:55;15.00;99.90
47226;DHT22;32965;64.142;-21.912;2023-07-31T12:36:24;15.20;99.90
47226;DHT22;32965;64.142;-21.912;2023-07-31T12:38:51;15.20;99.90
47226;DHT22;32965;64.142;-21.912;2023-07-31T12:41:17;15.40;99.90
47226;DHT22;32965;64.142;-21.912;2023-07-31T12:43:44;15.50;99.90
47226;DHT22;32965;64.142;-21.912;2023-07-31T12:46:11;15.20;99.90
47226;DHT22;32965;64.142;-21.912;2023-07-31T12:48:37;15.10;99.90
47226;DHT22;32965;64.142;-21.912;2023-07-31T12:51:04;15.00;99.90
47226;DHT22;32965;64.142;-21.912;2023-07-31T12:53:30;15.00;99.90
47226;DHT22;32965;64.142;-21.912;2023-07-31T12:55:56;15.10;99.90
47226;DHT22;32965;64.142;-21.912;2023-07-31T12:58:22;15.20;99.90
47226;DHT22;32965;64.142;-21.912;2023-07-31T13:00:48;14.90;99.90
47226;DHT22;32965;64.142;-21.912;2023-07-31T13:03:14;14.80;99.90
47226;DHT22;32965;64.142;-21.912;2023-07-31T13:06:00;14.70;99.90
47226;DHT22;32965;64.142;-21.912;2023-07-31T13:08:25;14.70;99.90
47226;DHT22;32965;64.142;-21.912;2023-07-31T13:10:51;15.00;99.90
47226;DHT22;32965;64.142;-21.912;2023-07-31T13:13:17;14.70;99.90
47226;DHT22;32965;64.142;-21.912;2023-07-31T13:15:44;14.50;99.90
47226;DHT22;32965;64.142;-21.912;2023-07-31T13:18:10;14.50;99.90
47226;DHT22;32965;64.142;-21.912;2023-07-31T13:20:36;14.50;99.90
47226;DHT22;32965;64.142;-21.912;2023-07-31T13:26:12;14.70;99.90
47226;DHT22;32965;64.142;-21.912;2023-07-31T13:28:38;14.50;99.90
47226;DHT22;32965;64.142;-21.912;2023-07-31T13:31:04;14.60;99.90
47226;DHT22;32965;64.142;-21.912;2023-07-31T13:33:30;14.80;99.90
47226;DHT22;32965;64.142;-21.912;2023-07-31T13:35:55;14.90;99.90
47226;DHT22;32965;64.142;-21.912;2023-07-31T13:38:21;15.00;99.90
47226;DHT22;32965;64.142;-21.912;2023-07-31T13:40:47;15.00;99.90
47226;DHT22;32965;64.142;-21.912;2023-07-31T13:43:13;15.00;99.90
47226;DHT22;32965;64.142;-21.912;2023-07-31T13:45:38;15.10;99.90
47226;DHT22;32965;64.142;-21.912;2023-07-31T13:48:04;15.10;99.90
47226;DHT22;32965;64.142;-21.912;2023-07-31T13:50:30;14.40;99.90
47226;DHT22;32965;64.142;-21.912;2023-07-31T13:52:56;15.10;99.90
47226;DHT22;32965;64.142;-21.912;2023-07-31T13:55:22;15.00;99.90
47226;DHT22;32965;64.142;-21.912;2023-07-31T13:57:48;14.90;99.90
47226;DHT22;32965;64.142;-21.912;2023-07-31T14:00:14;14.80;99.90
47226;DHT22;32965;64.142;-21.912;2023-07-31T14:02:40;14.60;99.90
47226;DHT22;32965;64.142;-21.912;2023-07-31T14:05:06;14.60;99.90
47226;DHT22;32965;64.142;-21.912;2023-07-31T14:07:33;14.60;99.90
47226;DHT22;32965;64.142;-21.912;2023-07-31T14:09:59;14.60;99.90
47226;DHT22;32965;64.142;-21.912;2023-07-31T14:12:25;14.60;99.90
47226;DHT22;32965;64.142;-21.912;2023-07-31T14:14:51;14.70;99.90
47226;DHT22;32965;64.142;-21.912;2023-07-31T14:17:16;14.90;99.90
47226;DHT22;32965;64.142;-21.912;2023-07-31T14:19:42;14.90;99.90
47226;DHT22;32965;64.142;-21.912;2023-07-31T14:22:08;14.90;99.90
47226;DHT22;32965;64.142;-21.912;2023-07-31T14:24:34;15.00;99.90
47226;DHT22;32965;64.142;-21.912;2023-07-31T14:27:00;15.00;99.90
47226;DHT22;32965;64.142;-21.912;2023-07-31T14:29:25;14.90;99.90
47226;DHT22;32965;64.142;-21.912;2023-07-31T14:31:51;14.90;99.90
47226;DHT22;32965;64.142;-21.912;2023-07-31T14:34:17;14.80;99.90
47226;DHT22;32965;64.142;-21.912;2023-07-31T14:36:43;14.70;99.90
47226;DHT22;32965;64.142;-21.912;2023-07-31T14:39:10;14.80;99.90
47226;DHT22;32965;64.142;-21.912;2023-07-31T14:41:35;14.80;99.90
47226;DHT22;32965;64.142;-21.912;2023-07-31T14:44:01;14.80;99.90
47226;DHT22;32965;64.142;-21.912;2023-07-31T14:46:27;14.80;99.90
47226;DHT22;32965;64.142;-21.912;2023-07-31T14:48:53;14.90;99.90
47226;DHT22;32965;64.142;-21.912;2023-07-31T14:51:18;14.90;99.90
47226;DHT22;32965;64.142;-21.912;2023-07-31T14:53:44;14.90;99.90
47226;DHT22;32965;64.142;-21.912;2023-07-31T14:56:10;14.90;99.90
47226;DHT22;32965;64.142;-21.912;2023-07-31T14:58:36;14.90;99.90
47226;DHT22;32965;64.142;-21.912;2023-07-31T15:01:02;15.00;99.90
47226;DHT22;32965;64.142;-21.912;2023-07-31T15:03:28;15.10;99.90
47226;DHT22;32965;64.142;-21.912;2023-07-31T15:05:53;15.30;99.90
47226;DHT22;32965;64.142;-21.912;2023-07-31T15:08:19;15.40;99.90
47226;DHT22;32965;64.142;-21.912;2023-07-31T15:14:03;15.70;99.90
47226;DHT22;32965;64.142;-21.912;2023-07-31T15:16:29;15.70;99.90
47226;DHT22;32965;64.142;-21.912;2023-07-31T15:19:16;15.80;99.90
47226;DHT22;32965;64.142;-21.912;2023-07-31T15:21:42;15.70;99.90
47226;DHT22;32965;64.142;-21.912;2023-07-31T15:24:08;14.70;99.90
47226;DHT22;32965;64.142;-21.912;2023-07-31T15:26:34;15.50;99.90
47226;DHT22;32965;64.142;-21.912;2023-07-31T15:29:05;15.50;99.90
47226;DHT22;32965;64.142;-21.912;2023-07-31T15:31:35;15.40;99.90
47226;DHT22;32965;64.142;-21.912;2023-07-31T15:34:00;15.20;99.90
47226;DHT22;32965;64.142;-21.912;2023-07-31T15:36:26;15.10;99.90
47226;DHT22;32965;64.142;-21.912;2023-07-31T15:38:52;15.10;99.90
47226;DHT22;32965;64.142;-21.912;2023-07-31T15:41:18;15.20;99.90
47226;DHT22;32965;64.142;-21.912;2023-07-31T15:43:45;15.20;99.90
47226;DHT22;32965;64.142;-21.912;2023-07-31T15:46:11;15.30;99.90
47226;DHT22;32965;64.142;-21.912;2023-07-31T15:48:37;15.30;99.90
47226;DHT22;32965;64.142;-21.912;2023-07-31T15:51:03;15.30;99.90
47226;DHT22;32965;64.142;-21.912;2023-07-31T15:53:30;15.30;99.90
47226;DHT22;32965;64.142;-21.912;2023-07-31T15:55:59;15.30;99.90
47226;DHT22;32965;64.142;-21.912;2023-07-31T15:58:25;15.40;99.90